Time;durP1;ratioP1;P1;durP2;ratioP2;P2;SDS_P1;SDS_P2;PMS_P1;PMS_P2;Temp;Humidity;BMP_temperature;BMP_pressure;BME280_temperature;BME280_humidity;BME280_pressure;Samples;Min_cycle;Max_cycle;Signal;HPM_P1;HPM_P2
2024/03/17 00:02:04;;;;;;;;;;;;;;;23.05;49.43;94828.69;5049098;28;9063;-60
2024/03/17 00:05:08;;;;;;;;;;;;;;;23.03;49.41;94831.16;5052809;28;9264;-60
2024/03/17 00:08:23;;;;;;;;;;;;;;;23.01;49.59;94833.63;5044507;28;8744;-60
2024/03/17 00:10:57;;;;;;;;;;;;;;;23.00;49.06;94832.16;4998913;28;8960;-60
2024/03/17 00:13:26;;;;;;;;;;;;;;;22.99;49.45;94830.63;5023028;28;9437;-60
2024/03/17 00:16:14;;;;;;;;;;;;;;;22.97;49.17;94827.63;5008493;28;9096;-60
2024/03/17 00:18:51;;;;;;;;;;;;;;;22.98;49.70;94829.13;5010746;28;9085;-60
2024/03/17 00:21:17;;;;;;;;;;;;;;;22.99;48.85;94818.88;5013806;28;8789;-60
2024/03/17 00:24:13;;;;;;;;;;;;;;;22.99;49.36;94822.38;5016439;28;9007;-60
2024/03/17 00:27:07;;;;;;;;;;;;;;;22.98;49.51;94823.66;4965359;28;9117;-60
2024/03/17 00:29:33;;;;;;;;;;;;;;;22.91;48.98;94813.09;4992003;28;7355;-60
2024/03/17 00:32:01;;;;;;;;;;;;;;;22.95;49.27;94819.13;4980720;28;9917;-60
2024/03/17 00:34:28;;;;;;;;;;;;;;;22.94;49.30;94812.13;4972857;28;9064;-60
2024/03/17 00:37:03;;;;;;;;;;;;;;;22.99;49.13;94818.88;4977070;28;9476;-60
2024/03/17 00:39:49;;;;;;;;;;;;;;;22.97;48.94;94813.91;4982300;28;8727;-60
2024/03/17 00:42:26;;;;;;;;;;;;;;;22.98;49.04;94812.66;4960519;28;9413;-60
2024/03/17 00:45:23;;;;;;;;;;;;;;;22.98;49.42;94804.44;4991359;28;9091;-60
2024/03/17 00:47:49;;;;;;;;;;;;;;;22.97;49.06;94800.19;5008975;28;9170;-60
2024/03/17 00:50:18;;;;;;;;;;;;;;;22.98;48.99;94789.97;5016364;28;9452;-60
2024/03/17 00:52:45;;;;;;;;;;;;;;;22.97;49.06;94791.94;5014523;28;9197;-60
2024/03/17 00:55:19;;;;;;;;;;;;;;;22.94;49.11;94790.19;5020484;28;8739;-60
2024/03/17 00:57:58;;;;;;;;;;;;;;;22.96;49.51;94792.44;5015513;28;7633;-60
2024/03/17 01:00:29;;;;;;;;;;;;;;;22.94;49.23;94786.69;5017185;28;9587;-60
2024/03/17 01:02:55;;;;;;;;;;;;;;;22.95;49.25;94785.44;5029010;28;9331;-60
2024/03/17 01:05:31;;;;;;;;;;;;;;;22.95;48.95;94788.94;5051349;28;9381;-63
2024/03/17 01:08:06;;;;;;;;;;;;;;;22.97;49.43;94789.22;5043460;28;9433;-61
2024/03/17 01:10:44;;;;;;;;;;;;;;;22.96;49.10;94787.72;5032431;28;9437;-61
2024/03/17 01:13:10;;;;;;;;;;;;;;;22.97;49.09;94775.50;5018796;28;8724;-62
2024/03/17 01:15:45;;;;;;;;;;;;;;;22.99;49.31;94780.47;5030195;28;9138;-61
2024/03/17 01:18:30;;;;;;;;;;;;;;;22.93;48.97;94763.22;5016851;28;7028;-61
2024/03/17 01:21:04;;;;;;;;;;;;;;;22.96;48.91;94763.03;5034730;28;9827;-61
2024/03/17 01:23:39;;;;;;;;;;;;;;;22.96;49.39;94759.53;5046076;28;9286;-61
2024/03/17 01:26:07;;;;;;;;;;;;;;;22.94;49.31;94759.25;5107493;28;9573;-62
2024/03/17 01:28:33;;;;;;;;;;;;;;;22.94;49.02;94756.50;5109471;27;8988;-61
2024/03/17 01:31:05;;;;;;;;;;;;;;;22.93;48.81;94750.28;5105420;28;8972;-61
2024/03/17 01:33:31;;;;;;;;;;;;;;;22.96;48.97;94748.56;5090604;28;9715;-62
2024/03/17 01:35:59;;;;;;;;;;;;;;;22.93;48.99;94739.31;5081141;28;7088;-61
2024/03/17 01:38:28;;;;;;;;;;;;;;;22.96;49.10;94740.31;5084368;28;9024;-61
2024/03/17 01:40:59;;;;;;;;;;;;;;;22.94;48.98;94737.31;5110476;28;7192;-61
2024/03/17 01:43:33;;;;;;;;;;;;;;;22.93;49.15;94736.56;5086389;28;9123;-61
2024/03/17 01:46:05;;;;;;;;;;;;;;;22.92;48.80;94729.56;5085778;28;9229;-61
2024/03/17 01:48:39;;;;;;;;;;;;;;;22.87;49.26;94724.78;5080178;28;7249;-62
2024/03/17 01:51:10;;;;;;;;;;;;;;;22.90;48.92;94723.06;5092247;28;6919;-61
2024/03/17 01:53:42;;;;;;;;;;;;;;;22.89;49.14;94725.06;5095279;28;9313;-61
2024/03/17 01:56:17;;;;;;;;;;;;;;;22.89;48.75;94719.56;5092783;28;7026;-62
2024/03/17 01:58:56;;;;;;;;;;;;;;;22.91;49.20;94716.34;5090399;28;9012;-62
2024/03/17 02:01:30;;;;;;;;;;;;;;;22.90;49.30;94715.56;5088441;28;9180;-61
2024/03/17 02:04:05;;;;;;;;;;;;;;;22.90;49.10;94714.84;5087782;28;8153;-62
2024/03/17 02:06:37;;;;;;;;;;;;;;;22.91;48.95;94716.34;5094108;28;9404;-62
2024/03/17 02:09:03;;;;;;;;;;;;;;;22.86;49.52;94709.56;5092494;28;8724;-62
2024/03/17 02:11:33;;;;;;;;;;;;;;;22.89;49.19;94707.84;5097169;28;8828;-62
2024/03/17 02:14:02;;;;;;;;;;;;;;;22.89;48.89;94705.84;5093497;28;9018;-62
2024/03/17 02:16:29;;;;;;;;;;;;;;;22.88;48.83;94701.59;5088434;28;8706;-60
2024/03/17 02:18:59;;;;;;;;;;;;;;;22.86;48.96;94706.81;5091991;28;9158;-60
2024/03/17 02:21:28;;;;;;;;;;;;;;;22.86;49.01;94695.84;5095499;28;7170;-60
2024/03/17 02:23:57;;;;;;;;;;;;;;;22.86;49.23;94697.84;5076068;28;9418;-60
2024/03/17 02:26:30;;;;;;;;;;;;;;;22.85;48.88;94696.34;5078270;28;9394;-60
2024/03/17 02:28:56;;;;;;;;;;;;;;;22.86;49.13;94695.84;5093313;28;8876;-60
2024/03/17 02:31:22;;;;;;;;;;;;;;;22.87;48.89;94696.59;5099020;28;8695;-60
2024/03/17 02:33:48;;;;;;;;;;;;;;;22.88;49.00;94690.63;5077414;28;7032;-60
2024/03/17 02:36:15;;;;;;;;;;;;;;;22.86;49.25;94686.88;5070296;28;9361;-60
2024/03/17 02:41:55;;;;;;;;;;;;;;;22.85;49.09;94680.66;5094357;28;8796;-60
2024/03/17 02:44:40;;;;;;;;;;;;;;;22.85;48.48;94677.91;5090538;28;9216;-60
2024/03/17 02:47:20;;;;;;;;;;;;;;;22.84;48.95;94681.09;5073260;28;9684;-60
2024/03/17 02:49:49;;;;;;;;;;;;;;;22.81;49.03;94680.13;5094154;28;9104;-60
2024/03/17 02:52:18;;;;;;;;;;;;;;;22.84;48.64;94684.59;5081691;28;7032;-60
2024/03/17 02:54:54;;;;;;;;;;;;;;;22.82;48.89;94687.09;5071255;28;9038;-60
2024/03/17 02:57:29;;;;;;;;;;;;;;;22.83;49.23;94685.09;5084651;28;9413;-60
2024/03/17 02:59:56;;;;;;;;;;;;;;;22.82;48.95;94686.31;5081907;28;9182;-60
2024/03/17 03:02:43;;;;;;;;;;;;;;;22.80;48.90;94675.84;5092895;28;8347;-60
2024/03/17 03:05:49;;;;;;;;;;;;;;;22.82;49.14;94667.13;5069714;28;8776;-60
2024/03/17 03:08:41;;;;;;;;;;;;;;;22.82;48.94;94667.88;5062710;28;7207;-60
2024/03/17 03:11:16;;;;;;;;;;;;;;;22.81;49.00;94671.88;5070245;28;9083;-60
2024/03/17 03:13:43;;;;;;;;;;;;;;;22.76;48.74;94664.34;5059159;28;8806;-60
2024/03/17 03:16:25;;;;;;;;;;;;;;;22.80;48.72;94664.88;5074993;28;8710;-60
2024/03/17 03:18:52;;;;;;;;;;;;;;;22.78;48.68;94663.84;5058577;28;8727;-60
2024/03/17 03:21:46;;;;;;;;;;;;;;;22.78;48.84;94667.34;5095245;28;8973;-60
2024/03/17 03:24:19;;;;;;;;;;;;;;;22.74;49.15;94646.88;5089327;28;9169;-60
2024/03/17 03:26:48;;;;;;;;;;;;;;;22.79;49.16;94655.16;5067572;28;9346;-60
2024/03/17 03:29:16;;;;;;;;;;;;;;;22.79;49.02;94660.66;5078446;28;8875;-60
2024/03/17 03:31:44;;;;;;;;;;;;;;;22.79;49.34;94662.63;5074762;28;7462;-60
2024/03/17 03:34:13;;;;;;;;;;;;;;;22.76;48.51;94658.88;5087841;28;9095;-59
2024/03/17 03:36:49;;;;;;;;;;;;;;;22.77;49.27;94659.63;5081674;28;9178;-60
2024/03/17 03:39:50;;;;;;;;;;;;;;;22.76;48.83;94658.88;5081906;28;9439;-60
2024/03/17 03:42:30;;;;;;;;;;;;;;;22.76;48.93;94658.09;5089169;28;9043;-60
2024/03/17 03:45:02;;;;;;;;;;;;;;;22.73;49.06;94656.34;5069306;28;8865;-60
2024/03/17 03:47:28;;;;;;;;;;;;;;;22.76;48.95;94658.09;5078964;28;7462;-60
2024/03/17 03:50:02;;;;;;;;;;;;;;;22.76;48.78;94661.59;5078193;28;7093;-60
2024/03/17 03:52:32;;;;;;;;;;;;;;;22.72;48.62;94643.88;5092042;28;8798;-60
2024/03/17 03:55:07;;;;;;;;;;;;;;;22.74;48.67;94649.63;5065580;28;6949;-59
2024/03/17 03:57:42;;;;;;;;;;;;;;;22.74;49.11;94663.31;5082375;28;7117;-60
2024/03/17 04:00:31;;;;;;;;;;;;;;;22.75;49.17;94654.59;5079139;28;8719;-60
2024/03/17 04:02:59;;;;;;;;;;;;;;;22.70;49.03;94652.59;5063975;28;9013;-60
2024/03/17 04:06:00;;;;;;;;;;;;;;;22.74;48.75;94650.38;5077024;28;9519;-60
2024/03/17 04:08:27;;;;;;;;;;;;;;;22.74;48.66;94649.63;5071808;28;9028;-60
2024/03/17 04:11:07;;;;;;;;;;;;;;;22.73;48.83;94654.34;5088419;28;9209;-60
2024/03/17 04:14:26;;;;;;;;;;;;;;;22.73;48.87;94659.81;5071459;28;9218;-60
2024/03/17 04:17:06;;;;;;;;;;;;;;;22.73;49.07;94670.06;5076804;28;9011;-60
2024/03/17 04:19:54;;;;;;;;;;;;;;;22.72;49.24;94665.81;5074529;28;7315;-60
2024/03/17 04:22:27;;;;;;;;;;;;;;;22.74;48.98;94661.34;5093100;28;8816;-60
2024/03/17 04:25:45;;;;;;;;;;;;;;;22.72;48.91;94652.09;5076887;28;9142;-64
2024/03/17 04:28:19;;;;;;;;;;;;;;;22.69;49.08;94651.06;5083941;28;9095;-60
2024/03/17 04:30:46;;;;;;;;;;;;;;;22.63;49.24;94644.78;5099935;28;8685;-60
2024/03/17 04:33:12;;;;;;;;;;;;;;;22.65;49.27;94645.06;5065616;28;8729;-60
2024/03/17 04:35:40;;;;;;;;;;;;;;;22.64;48.91;94646.28;5073908;28;7036;-60
2024/03/17 04:38:10;;;;;;;;;;;;;;;22.65;49.01;94649.78;5088394;28;9276;-60
2024/03/17 04:41:07;;;;;;;;;;;;;;;22.65;49.18;94649.78;5075847;28;9278;-60
2024/03/17 04:43:43;;;;;;;;;;;;;;;22.64;49.27;94654.50;5076401;28;7030;-60
2024/03/17 04:46:30;;;;;;;;;;;;;;;22.61;49.15;94652.00;5084493;28;9341;-60
2024/03/17 04:49:12;;;;;;;;;;;;;;;22.60;48.98;94647.75;5075090;28;9227;-60
2024/03/17 04:51:50;;;;;;;;;;;;;;;22.63;49.19;94650.28;5072006;28;7173;-60
2024/03/17 04:54:18;;;;;;;;;;;;;;;22.61;48.85;94655.50;5092912;28;9543;-60
2024/03/17 04:57:02;;;;;;;;;;;;;;;22.63;49.04;94661.25;5073744;28;9571;-60
2024/03/17 04:59:29;;;;;;;;;;;;;;;22.64;49.28;94662.72;5067850;28;9042;-60
2024/03/17 05:01:55;;;;;;;;;;;;;;;22.61;49.03;94660.97;5086846;28;9732;-60
2024/03/17 05:04:28;;;;;;;;;;;;;;;22.61;48.79;94658.22;5074128;28;9248;-60
2024/03/17 05:07:03;;;;;;;;;;;;;;;22.61;49.26;94658.22;5085561;28;9377;-60
2024/03/17 05:09:49;;;;;;;;;;;;;;;22.57;49.19;94654.94;5084716;28;8728;-60
2024/03/17 05:12:35;;;;;;;;;;;;;;;22.61;49.53;94658.22;5075589;28;9328;-60
2024/03/17 05:15:28;;;;;;;;;;;;;;;22.62;49.26;94659.00;5078777;28;6856;-60
2024/03/17 05:17:54;;;;;;;;;;;;;;;22.63;49.12;94661.25;5027501;28;7233;-60
2024/03/17 05:20:31;;;;;;;;;;;;;;;22.61;49.38;94663.72;5021569;28;9352;-60
2024/03/17 05:23:04;;;;;;;;;;;;;;;22.58;49.05;94648.19;5006574;28;8797;-60
2024/03/17 05:25:54;;;;;;;;;;;;;;;22.63;48.92;94661.25;5006957;28;9340;-60
2024/03/17 05:28:29;;;;;;;;;;;;;;;22.60;49.11;94667.69;5027042;28;9064;-60
2024/03/17 05:30:56;;;;;;;;;;;;;;;22.65;49.12;94668.97;5016776;28;9591;-60
2024/03/17 05:33:26;;;;;;;;;;;;;;;22.61;48.79;94668.44;5006316;28;9012;-60
2024/03/17 05:35:57;;;;;;;;;;;;;;;22.64;49.10;94662.72;5015401;28;9069;-60
2024/03/17 05:38:35;;;;;;;;;;;;;;;22.70;48.96;94671.78;5024666;28;9472;-60
2024/03/17 05:41:41;;;;;;;;;;;;;;;22.71;49.15;94667.78;5000827;28;7773;-60
2024/03/17 05:44:49;;;;;;;;;;;;;;;22.73;48.72;94676.28;4954962;28;7110;-60
2024/03/17 05:47:26;;;;;;;;;;;;;;;22.74;48.49;94677.78;4958970;28;8935;-59
2024/03/17 05:50:01;;;;;;;;;;;;;;;22.73;49.06;94676.28;4968886;28;9261;-59
2024/03/17 05:52:48;;;;;;;;;;;;;;;22.76;49.11;94674.56;4960163;28;7613;-59
2024/03/17 05:55:36;;;;;;;;;;;;;;;22.75;48.85;94671.06;4993386;28;9365;-59
2024/03/17 05:58:03;;;;;;;;;;;;;;;22.76;48.62;94672.59;4982322;28;9159;-59
2024/03/17 06:00:39;;;;;;;;;;;;;;;22.77;48.76;94668.59;5010669;28;9268;-59
2024/03/17 06:03:07;;;;;;;;;;;;;;;22.69;48.89;94659.31;4992423;28;8800;-67
2024/03/17 06:05:45;;;;;;;;;;;;;;;22.75;49.10;94676.53;4996710;28;8751;-67
2024/03/17 06:08:30;;;;;;;;;;;;;;;22.78;48.72;94691.28;4995732;28;9775;-67
2024/03/17 06:11:35;;;;;;;;;;;;;;;22.78;48.67;94681.06;4979879;28;9022;-66
2024/03/17 06:14:36;;;;;;;;;;;;;;;22.78;49.10;94683.06;4945921;28;8734;-66
2024/03/17 06:17:02;;;;;;;;;;;;;;;22.78;48.91;94683.81;4989907;28;7023;-66
2024/03/17 06:19:58;;;;;;;;;;;;;;;22.79;49.01;94690.81;5002700;28;8737;-66
2024/03/17 06:22:35;;;;;;;;;;;;;;;22.79;49.28;94679.84;4979614;28;8798;-67
2024/03/17 06:25:38;;;;;;;;;;;;;;;22.81;48.69;94687.59;5016300;28;9049;-66
2024/03/17 06:28:14;;;;;;;;;;;;;;;22.81;48.66;94693.81;4997591;28;8953;-66
2024/03/17 06:30:41;;;;;;;;;;;;;;;22.80;48.74;94691.53;5019811;28;9063;-66
2024/03/17 06:33:12;;;;;;;;;;;;;;;22.84;48.73;94689.34;4997869;28;9420;-66
2024/03/17 06:35:37;;;;;;;;;;;;;;;22.83;48.93;94690.59;5027234;28;9141;-66
2024/03/17 06:38:17;;;;;;;;;;;;;;;22.81;48.73;94677.38;5033881;28;8919;-65
2024/03/17 06:40:55;;;;;;;;;;;;;;;22.87;48.84;94683.66;5031420;28;8791;-65
2024/03/17 06:43:22;;;;;;;;;;;;;;;22.88;49.04;94687.88;5025044;28;9310;-65
2024/03/17 06:46:07;;;;;;;;;;;;;;;22.88;48.68;94678.91;5064764;28;8733;-65
2024/03/17 06:48:33;;;;;;;;;;;;;;;22.88;48.96;94676.19;5054094;28;7322;-64
2024/03/17 06:51:01;;;;;;;;;;;;;;;22.88;48.76;94676.19;5099338;28;8844;-66
2024/03/17 06:53:44;;;;;;;;;;;;;;;22.86;48.62;94673.16;5082235;28;9252;-66
2024/03/17 06:56:18;;;;;;;;;;;;;;;22.83;47.91;94676.88;5090831;28;9393;-65
2024/03/17 06:58:54;;;;;;;;;;;;;;;22.79;48.08;94685.34;5075846;28;8875;-66
2024/03/17 07:01:21;;;;;;;;;;;;;;;22.80;48.15;94686.81;5080078;28;9416;-66
2024/03/17 07:03:56;;;;;;;;;;;;;;;22.81;48.40;94682.84;5086834;28;9493;-65
2024/03/17 07:06:33;;;;;;;;;;;;;;;22.79;48.26;94679.84;5094714;28;8874;-61
2024/03/17 07:09:02;;;;;;;;;;;;;;;22.82;48.63;94678.84;5077964;28;9473;-69
2024/03/17 07:11:36;;;;;;;;;;;;;;;22.88;48.42;94685.13;5078423;28;9577;-70
2024/03/17 07:14:02;;;;;;;;;;;;;;;22.90;49.14;94674.44;5072541;28;8899;-72
2024/03/17 07:16:31;;;;;;;;;;;;;;;22.93;48.78;94676.22;5073953;28;8978;-62
2024/03/17 07:19:01;;;;;;;;;;;;;;;22.97;49.30;94678.72;5090540;28;9181;-61
2024/03/17 07:21:28;;;;;;;;;;;;;;;22.95;49.35;94672.97;5088837;28;9216;-61
2024/03/17 07:24:08;;;;;;;;;;;;;;;23.00;49.57;94677.75;5075168;28;8961;-61
2024/03/17 07:26:40;;;;;;;;;;;;;;;23.00;49.61;94680.50;5074250;28;9340;-61
2024/03/17 07:29:19;;;;;;;;;;;;;;;22.97;49.35;94667.75;5093613;28;9125;-61
2024/03/17 07:31:47;;;;;;;;;;;;;;;23.06;49.72;94676.56;5086675;28;9015;-61
2024/03/17 07:34:13;;;;;;;;;;;;;;;23.05;48.09;94691.50;5092388;28;9085;-61
2024/03/17 07:36:40;;;;;;;;;;;;;;;22.95;47.67;94687.44;5079577;28;8722;-60
2024/03/17 07:39:12;;;;;;;;;;;;;;;22.95;49.04;94681.97;5099065;28;9333;-63
2024/03/17 07:41:45;;;;;;;;;;;;;;;22.95;48.92;94681.19;5073145;28;9012;-62
2024/03/17 07:44:14;;;;;;;;;;;;;;;23.00;49.21;94689.50;5087307;28;9495;-63
2024/03/17 07:47:15;;;;;;;;;;;;;;;23.03;48.85;94685.75;5088335;28;9530;-63
2024/03/17 07:49:50;;;;;;;;;;;;;;;23.05;49.33;94691.50;5025735;28;7194;-62
2024/03/17 07:52:30;;;;;;;;;;;;;;;23.07;49.15;94689.06;5032241;28;9858;-61
2024/03/17 07:54:57;;;;;;;;;;;;;;;23.04;49.12;94673.56;5009728;28;7362;-59
2024/03/17 07:57:24;;;;;;;;;;;;;;;23.12;49.07;94685.59;5040251;28;9087;-59
2024/03/17 07:59:53;;;;;;;;;;;;;;;23.14;49.16;94682.38;5014307;28;8911;-60
2024/03/17 08:02:20;;;;;;;;;;;;;;;23.15;49.35;94686.63;5028453;28;9107;-60
2024/03/17 08:05:05;;;;;;;;;;;;;;;23.18;49.79;94677.41;5015575;28;7487;-60
2024/03/17 08:07:32;;;;;;;;;;;;;;;23.20;49.22;94681.19;5017157;28;7126;-60
2024/03/17 08:10:09;;;;;;;;;;;;;;;23.20;49.14;94680.41;5027852;28;7130;-60
2024/03/17 08:12:36;;;;;;;;;;;;;;;23.19;49.36;94676.91;5020064;28;9122;-60
2024/03/17 08:15:04;;;;;;;;;;;;;;;23.21;49.39;94682.66;5026593;28;9228;-60
2024/03/17 08:17:30;;;;;;;;;;;;;;;23.20;48.92;94678.44;5026497;28;8839;-60
2024/03/17 08:19:58;;;;;;;;;;;;;;;23.20;49.09;94678.44;5026107;28;9100;-60
2024/03/17 08:22:53;;;;;;;;;;;;;;;23.21;49.06;94679.94;5052903;28;9176;-61
2024/03/17 08:25:21;;;;;;;;;;;;;;;23.22;48.58;94675.97;5010917;28;9183;-65
2024/03/17 08:27:49;;;;;;;;;;;;;;;23.22;48.84;94684.19;5015846;28;9349;-64
2024/03/17 08:30:15;;;;;;;;;;;;;;;23.22;48.65;94678.69;5022633;28;9140;-62
2024/03/17 08:32:41;;;;;;;;;;;;;;;23.22;49.04;94666.97;5014368;28;8658;-62
2024/03/17 08:35:07;;;;;;;;;;;;;;;23.23;48.67;94665.72;5017952;28;9151;-62
2024/03/17 08:37:43;;;;;;;;;;;;;;;23.25;48.63;94669.47;5032074;28;7371;-63
2024/03/17 08:40:25;;;;;;;;;;;;;;;23.21;48.45;94662.69;5007967;28;8274;-59
2024/03/17 08:43:20;;;;;;;;;;;;;;;23.26;48.26;94667.50;5023605;28;9164;-64
2024/03/17 08:46:01;;;;;;;;;;;;;;;23.30;48.54;94673.50;5018284;28;9243;-61
2024/03/17 08:48:49;;;;;;;;;;;;;;;23.31;48.30;94666.78;5023017;28;9084;-62
2024/03/17 08:51:34;;;;;;;;;;;;;;;23.32;48.90;94664.78;5012778;28;7130;-63
2024/03/17 08:54:02;;;;;;;;;;;;;;;23.33;48.19;94669.03;5026147;28;9111;-62
2024/03/17 08:56:45;;;;;;;;;;;;;;;23.32;48.22;94668.28;5014212;28;9452;-62
2024/03/17 08:59:31;;;;;;;;;;;;;;;23.34;47.77;94673.31;5028523;28;9185;-64
2024/03/17 09:02:14;;;;;;;;;;;;;;;23.36;47.61;94676.31;5057932;28;9583;-66
2024/03/17 09:04:41;;;;;;;;;;;;;;;23.36;47.89;94679.81;5073281;28;9243;-65
2024/03/17 09:07:09;;;;;;;;;;;;;;;23.37;47.49;94675.84;5077184;28;9357;-64
2024/03/17 09:09:51;;;;;;;;;;;;;;;23.38;47.91;94685.56;5074429;28;9696;-67
2024/03/17 09:12:19;;;;;;;;;;;;;;;23.39;47.69;94680.81;5061683;28;8959;-68
2024/03/17 09:14:55;;;;;;;;;;;;;;;23.38;47.53;94682.81;5074637;28;7011;-68
2024/03/17 09:17:54;;;;;;;;;;;;;;;23.41;47.88;94684.59;5062715;28;6866;-69
2024/03/17 09:20:34;;;;;;;;;;;;;;;23.41;47.34;94678.34;5063344;28;9195;-68
2024/03/17 09:23:27;;;;;;;;;;;;;;;23.40;47.62;94671.34;5071779;28;7125;-68
2024/03/17 09:26:12;;;;;;;;;;;;;;;23.38;47.62;94669.09;5058587;28;9046;-67
2024/03/17 09:28:41;;;;;;;;;;;;;;;23.42;47.73;94672.38;5067041;28;9595;-67
2024/03/17 09:31:07;;;;;;;;;;;;;;;23.45;48.14;94678.84;5097423;27;9321;-67
2024/03/17 09:33:36;;;;;;;;;;;;;;;23.45;48.02;94667.88;5088221;28;8962;-68
2024/03/17 09:36:12;;;;;;;;;;;;;;;23.45;48.29;94667.88;5101163;28;9294;-60
2024/03/17 09:38:48;;;;;;;;;;;;;;;23.44;47.94;94661.66;5091696;28;9051;-60
2024/03/17 09:41:46;;;;;;;;;;;;;;;23.45;48.62;94662.38;5109167;28;9130;-58
2024/03/17 09:44:13;;;;;;;;;;;;;;;23.44;48.22;94669.91;5088481;28;9843;-58
2024/03/17 09:46:40;;;;;;;;;;;;;;;23.43;48.32;94660.16;5076234;28;8891;-58
2024/03/17 09:49:45;;;;;;;;;;;;;;;23.44;48.65;94660.91;5060218;28;9498;-58
2024/03/17 09:52:25;;;;;;;;;;;;;;;23.45;48.14;94657.66;5020745;28;9504;-58
2024/03/17 09:55:27;;;;;;;;;;;;;;;23.47;48.84;94663.41;5030671;28;9042;-59
2024/03/17 10:01:52;;;;;;;;;;;;;;;23.50;49.01;94664.44;4986235;28;7153;-58
2024/03/17 10:04:40;;;;;;;;;;;;;;;23.51;48.51;94663.19;4972520;28;9052;-58
2024/03/17 10:07:07;;;;;;;;;;;;;;;23.50;49.14;94664.44;4990364;28;7238;-58
2024/03/17 10:10:12;;;;;;;;;;;;;;;23.50;49.15;94658.94;4986610;28;9401;-59
2024/03/17 10:12:53;;;;;;;;;;;;;;;23.53;48.63;94660.72;4973801;28;9073;-59
2024/03/17 10:15:31;;;;;;;;;;;;;;;23.57;48.66;94655.72;4974920;28;8732;-59
2024/03/17 10:17:59;;;;;;;;;;;;;;;23.56;49.11;94656.97;4980326;28;8760;-58
2024/03/17 10:20:56;;;;;;;;;;;;;;;23.57;49.28;94659.25;4975282;28;9196;-59
2024/03/17 10:23:23;;;;;;;;;;;;;;;23.59;49.35;94659.50;4975301;28;9370;-59
2024/03/17 10:26:14;;;;;;;;;;;;;;;23.56;49.22;94660.47;4988561;28;9182;-59
2024/03/17 10:28:44;;;;;;;;;;;;;;;23.55;48.90;94664.47;5007236;28;8701;-57
2024/03/17 10:31:12;;;;;;;;;;;;;;;23.53;49.31;94661.44;5015312;28;7127;-58
2024/03/17 10:33:38;;;;;;;;;;;;;;;23.56;49.65;94667.94;5089079;28;7376;-57
2024/03/17 10:36:17;;;;;;;;;;;;;;;23.59;49.63;94667.75;5073288;28;9218;-58
2024/03/17 10:38:58;;;;;;;;;;;;;;;23.62;49.75;94671.50;5078501;28;9379;-56
2024/03/17 10:42:04;;;;;;;;;;;;;;;23.63;49.82;94673.00;5077890;28;9521;-56
2024/03/17 10:45:08;;;;;;;;;;;;;;;23.64;49.66;94674.50;5092518;28;9015;-56
2024/03/17 10:47:53;;;;;;;;;;;;;;;23.64;49.81;94671.75;5030423;28;9250;-57
2024/03/17 10:51:04;;;;;;;;;;;;;;;23.64;50.35;94669.00;4991796;28;8316;-56
2024/03/17 10:53:31;;;;;;;;;;;;;;;23.66;50.17;94670.00;4993604;28;9888;-57
2024/03/17 10:56:40;;;;;;;;;;;;;;;23.69;50.63;94671.00;4994537;28;7183;-57
2024/03/17 10:59:11;;;;;;;;;;;;;;;23.65;50.01;94665.75;5022736;28;9107;-55
2024/03/17 11:01:50;;;;;;;;;;;;;;;23.70;50.54;94672.53;5006317;28;8773;-56
2024/03/17 11:04:49;;;;;;;;;;;;;;;23.70;50.50;94675.28;5020586;28;8282;-55
2024/03/17 11:07:26;;;;;;;;;;;;;;;23.69;50.09;94684.75;5008690;28;7011;-56
2024/03/17 11:10:30;;;;;;;;;;;;;;;23.71;49.92;94699.50;5009225;28;9906;-58
2024/03/17 11:13:28;;;;;;;;;;;;;;;23.72;49.95;94692.78;4980349;28;9063;-56
2024/03/17 11:19:41;;;;;;;;;;;;;;;23.71;50.37;94701.47;4945043;28;9545;-56
2024/03/17 11:22:45;;;;;;;;;;;;;;;23.71;50.11;94707.72;4931471;28;9590;-57
2024/03/17 11:25:30;;;;;;;;;;;;;;;23.70;50.50;94711.75;4975365;28;9072;-56
2024/03/17 11:28:48;;;;;;;;;;;;;;;23.70;49.95;94705.50;4971068;28;9752;-56
2024/03/17 11:31:32;;;;;;;;;;;;;;;23.61;50.03;94687.22;4971402;28;8831;-56
2024/03/17 11:34:03;;;;;;;;;;;;;;;23.68;50.85;94699.75;4978911;28;9102;-57
2024/03/17 11:36:46;;;;;;;;;;;;;;;23.57;50.37;94674.97;4974864;28;7330;-57
2024/03/17 11:40:09;;;;;;;;;;;;;;;23.65;50.41;94685.00;4973301;28;9098;-58
2024/03/17 11:43:07;;;;;;;;;;;;;;;23.65;50.15;94682.25;4962979;28;8730;-58
2024/03/17 11:45:55;;;;;;;;;;;;;;;23.66;50.57;94680.25;4945226;28;9056;-57
2024/03/17 11:48:23;;;;;;;;;;;;;;;23.66;50.44;94688.50;4997186;28;7163;-57
2024/03/17 11:50:58;;;;;;;;;;;;;;;23.65;50.29;94678.75;5004189;28;8727;-57
2024/03/17 11:53:38;;;;;;;;;;;;;;;23.68;50.77;94686.75;5038383;28;8239;-57
2024/03/17 11:56:32;;;;;;;;;;;;;;;23.67;50.47;94673.50;5053193;28;9183;-59
2024/03/17 11:59:09;;;;;;;;;;;;;;;23.66;50.10;94664.50;5053164;28;9112;-58
2024/03/17 12:02:10;;;;;;;;;;;;;;;23.65;49.88;94654.03;5034251;28;7026;-59
2024/03/17 12:05:32;;;;;;;;;;;;;;;23.63;50.73;94649.03;5006411;28;9522;-58
2024/03/17 12:07:59;;;;;;;;;;;;;;;23.65;50.51;94684.22;5031268;28;7187;-58
2024/03/17 12:10:37;;;;;;;;;;;;;;;23.63;50.73;94673.00;5028671;28;9400;-59
2024/03/17 12:13:24;;;;;;;;;;;;;;;23.66;50.75;94688.50;4994536;28;8609;-59
2024/03/17 12:16:19;;;;;;;;;;;;;;;23.67;50.59;94684.50;4993149;28;9442;-58
2024/03/17 12:19:06;;;;;;;;;;;;;;;23.65;50.28;94682.25;5025833;28;7423;-59
2024/03/17 12:22:06;;;;;;;;;;;;;;;23.60;49.02;94688.44;5000756;28;9157;-59
2024/03/17 12:24:49;;;;;;;;;;;;;;;23.47;48.32;94674.38;5012789;28;8919;-59
2024/03/17 12:27:26;;;;;;;;;;;;;;;23.43;49.13;94676.63;5023828;28;9095;-59
2024/03/17 12:29:57;;;;;;;;;;;;;;;23.47;49.77;94676.41;5032644;28;9520;-60
2024/03/17 12:32:25;;;;;;;;;;;;;;;23.51;49.81;94680.41;5015569;28;9012;-59
2024/03/17 12:34:57;;;;;;;;;;;;;;;23.53;49.79;94675.16;5032733;28;8939;-60
2024/03/17 12:41:30;;;;;;;;;;;;;;;23.52;49.52;94664.69;5090752;28;9328;-59
2024/03/17 12:43:58;;;;;;;;;;;;;;;23.51;49.48;94672.16;5035126;28;9049;-58
2024/03/17 12:46:43;;;;;;;;;;;;;;;23.51;49.65;94658.44;5027118;28;9866;-60
2024/03/17 12:49:18;;;;;;;;;;;;;;;23.53;50.06;94660.72;5032880;28;8948;-59
2024/03/17 12:51:44;;;;;;;;;;;;;;;23.55;49.93;94663.72;5033342;28;9121;-59
2024/03/17 12:54:25;;;;;;;;;;;;;;;23.57;50.28;94658.47;5033764;28;9027;-60
2024/03/17 13:00:33;;;;;;;;;;;;;;;23.57;50.03;94664.72;5048584;28;7244;-59
2024/03/17 13:03:35;;;;;;;;;;;;;;;23.54;49.37;94656.72;4979754;28;8698;-60
2024/03/17 13:06:26;;;;;;;;;;;;;;;23.56;49.57;94662.47;4894495;29;9069;-58
2024/03/17 13:08:52;;;;;;;;;;;;;;;23.55;49.69;94650.00;4914600;29;8974;-59
2024/03/17 13:11:29;;;;;;;;;;;;;;;23.55;49.48;94644.50;4899658;29;9135;-58
2024/03/17 13:13:55;;;;;;;;;;;;;;;23.56;49.54;94640.50;4912017;29;9520;-58
2024/03/17 13:16:21;;;;;;;;;;;;;;;23.56;50.19;94640.50;4913929;29;8872;-58
2024/03/17 13:18:51;;;;;;;;;;;;;;;23.54;50.11;94635.50;4912223;28;9055;-58
2024/03/17 13:21:18;;;;;;;;;;;;;;;23.53;49.85;94609.28;4925278;29;8545;-58
2024/03/17 13:23:57;;;;;;;;;;;;;;;23.53;49.56;94598.28;4909547;29;6955;-58
2024/03/17 13:30:28;;;;;;;;;;;;;;;23.53;49.76;94600.31;4853986;29;7014;-58
2024/03/17 13:32:58;;;;;;;;;;;;;;;23.54;49.50;94599.06;4853416;29;9497;-58
2024/03/17 13:35:29;;;;;;;;;;;;;;;23.52;49.63;94593.31;4842054;29;9743;-58
2024/03/17 13:38:02;;;;;;;;;;;;;;;23.49;49.87;94595.03;4854903;29;9153;-59
2024/03/17 13:40:28;;;;;;;;;;;;;;;23.49;49.78;94594.31;4961656;28;9061;-58
2024/03/17 13:43:26;;;;;;;;;;;;;;;23.56;49.89;94596.56;5011013;28;9107;-58
2024/03/17 13:45:53;;;;;;;;;;;;;;;23.58;51.35;94592.09;4934704;29;7320;-58
2024/03/17 13:48:35;;;;;;;;;;;;;;;23.70;52.12;94590.91;4952873;29;9843;-58
2024/03/17 13:51:04;;;;;;;;;;;;;;;23.87;66.15;94601.94;4935566;29;9227;-60
2024/03/17 13:53:31;;;;;;;;;;;;;;;24.34;70.76;94605.84;4936019;29;9643;-59
2024/03/17 13:55:56;;;;;;;;;;;;;;;24.75;70.10;94595.91;4938486;29;9448;-59
2024/03/17 13:58:24;;;;;;;;;;;;;;;25.04;67.62;94603.66;4941251;29;9177;-59
2024/03/17 14:00:50;;;;;;;;;;;;;;;25.24;58.99;94602.63;4937076;29;8703;-62
2024/03/17 14:03:18;;;;;;;;;;;;;;;25.22;50.40;94592.13;4955816;28;8176;-62
2024/03/17 14:06:02;;;;;;;;;;;;;;;25.25;48.35;94582.84;4946447;28;9496;-59
2024/03/17 14:08:29;;;;;;;;;;;;;;;25.26;48.21;94586.34;4995043;28;7112;-58
2024/03/17 14:11:04;;;;;;;;;;;;;;;25.03;49.68;94563.66;4998925;28;8687;-59
2024/03/17 14:13:46;;;;;;;;;;;;;;;24.59;48.78;94560.88;4993915;28;9458;-58
2024/03/17 14:16:22;;;;;;;;;;;;;;;24.33;49.16;94552.88;5015773;28;9580;-59